WZZ5T LOWW-EPKK
Flight info
| Callsign | WZZ5T |
|---|---|
| Flight time | 0h 42m |
| Altitude | 23000 |
| Route | KOXER Z649 XENAK M985 MEBAN |
| Aircraft | A20N/M-SDE2E3FGHIRWXY/LB1 |
Departure
| Time | 2026-05-01 13:49 |
|---|---|
| Airport | Vienna International Airport (LOWW) |
Arrival
| Time | 2026-05-01 14:32 |
|---|---|
| Airport | Kraków John Paul II International Airport (EPKK) |
| Time | Latitude | Longitude | Altitude | Speed | Heading |
|---|---|---|---|---|---|
| 2026-05-01 13:31 | 48.12017 | 16.55613 | 608 ft | 0 kts | 115° |
| 2026-05-01 13:33 | 48.12030 | 16.55572 | 617 ft | 4 kts | 115° |
| 2026-05-01 13:33 | 48.12049 | 16.55532 | 622 ft | 0 kts | 206° |
| 2026-05-01 13:38 | 48.12040 | 16.55526 | 615 ft | 7 kts | 204° |
| 2026-05-01 13:38 | 48.11959 | 16.55471 | 611 ft | 15 kts | 204° |
| 2026-05-01 13:38 | 48.11870 | 16.55523 | 619 ft | 16 kts | 116° |
| 2026-05-01 13:39 | 48.11819 | 16.55687 | 616 ft | 19 kts | 115° |
| 2026-05-01 13:39 | 48.11759 | 16.55878 | 619 ft | 21 kts | 115° |
| 2026-05-01 13:39 | 48.11690 | 16.56082 | 617 ft | 22 kts | 118° |
| 2026-05-01 13:39 | 48.11634 | 16.56253 | 616 ft | 11 kts | 115° |
| 2026-05-01 13:40 | 48.11597 | 16.56368 | 616 ft | 14 kts | 116° |
| 2026-05-01 13:40 | 48.11550 | 16.56510 | 614 ft | 17 kts | 116° |
| 2026-05-01 13:40 | 48.11492 | 16.56690 | 610 ft | 22 kts | 116° |
| 2026-05-01 13:40 | 48.11437 | 16.56861 | 614 ft | 15 kts | 116° |
| 2026-05-01 13:41 | 48.11384 | 16.57024 | 619 ft | 20 kts | 115° |
| 2026-05-01 13:41 | 48.11346 | 16.57138 | 612 ft | 1 kts | 116° |
| 2026-05-01 13:41 | 48.11326 | 16.57198 | 616 ft | 16 kts | 115° |
| 2026-05-01 13:41 | 48.11266 | 16.57386 | 614 ft | 23 kts | 116° |
| 2026-05-01 13:42 | 48.11191 | 16.57618 | 615 ft | 24 kts | 115° |
| 2026-05-01 13:42 | 48.11085 | 16.57776 | 616 ft | 22 kts | 163° |
| 2026-05-01 13:42 | 48.10933 | 16.57842 | 611 ft | 24 kts | 163° |
| 2026-05-01 13:42 | 48.10786 | 16.57905 | 617 ft | 23 kts | 160° |
| 2026-05-01 13:43 | 48.10635 | 16.57967 | 618 ft | 22 kts | 163° |
| 2026-05-01 13:43 | 48.10481 | 16.58035 | 611 ft | 24 kts | 164° |
| 2026-05-01 13:43 | 48.10312 | 16.58104 | 615 ft | 26 kts | 164° |
| 2026-05-01 13:43 | 48.10129 | 16.58181 | 612 ft | 28 kts | 165° |
| 2026-05-01 13:44 | 48.09940 | 16.58262 | 616 ft | 29 kts | 164° |
| 2026-05-01 13:44 | 48.09754 | 16.58340 | 620 ft | 26 kts | 164° |
| 2026-05-01 13:44 | 48.09574 | 16.58415 | 613 ft | 28 kts | 161° |
| 2026-05-01 13:44 | 48.09381 | 16.58498 | 618 ft | 30 kts | 165° |
| 2026-05-01 13:45 | 48.09178 | 16.58583 | 617 ft | 31 kts | 161° |
| 2026-05-01 13:45 | 48.08972 | 16.58670 | 614 ft | 30 kts | 165° |
| 2026-05-01 13:45 | 48.08818 | 16.58782 | 608 ft | 23 kts | 129° |
| 2026-05-01 13:45 | 48.08792 | 16.58933 | 614 ft | 0 kts | 77° |
| 2026-05-01 13:48 | 48.08794 | 16.58944 | 608 ft | 6 kts | 77° |
| 2026-05-01 13:48 | 48.08869 | 16.59089 | 615 ft | 22 kts | 28° |
| 2026-05-01 13:49 | 48.09040 | 16.59057 | 619 ft | 43 kts | 343° |
| 2026-05-01 13:49 | 48.09558 | 16.58840 | 616 ft | 108 kts | 344° |
| 2026-05-01 13:49 | 48.10444 | 16.58465 | 614 ft | 156 kts | 344° |
| 2026-05-01 13:49 | 48.11482 | 16.58038 | 1305 ft | 145 kts | 346° |
| 2026-05-01 13:50 | 48.12450 | 16.57721 | 2093 ft | 140 kts | 350° |
| 2026-05-01 13:50 | 48.13426 | 16.57600 | 2790 ft | 146 kts | 2° |
| 2026-05-01 13:50 | 48.14467 | 16.57907 | 3207 ft | 164 kts | 22° |
| 2026-05-01 13:50 | 48.15529 | 16.58782 | 3684 ft | 185 kts | 28° |
| 2026-05-01 13:51 | 48.16690 | 16.59822 | 4271 ft | 205 kts | 30° |
| 2026-05-01 13:51 | 48.17947 | 16.61000 | 4844 ft | 224 kts | 31° |
| 2026-05-01 13:51 | 48.19326 | 16.62325 | 5377 ft | 246 kts | 31° |
| 2026-05-01 13:51 | 48.20819 | 16.63713 | 6139 ft | 256 kts | 30° |
| 2026-05-01 13:52 | 48.22354 | 16.65101 | 7176 ft | 257 kts | 30° |
| 2026-05-01 13:52 | 48.23885 | 16.66515 | 8204 ft | 258 kts | 36° |
| 2026-05-01 13:52 | 48.25053 | 16.68490 | 9222 ft | 260 kts | 61° |
| 2026-05-01 13:52 | 48.25516 | 16.71116 | 10264 ft | 264 kts | 81° |
| 2026-05-01 13:53 | 48.25939 | 16.73808 | 10917 ft | 273 kts | 62° |
| 2026-05-01 13:53 | 48.28759 | 16.78138 | 11710 ft | 309 kts | 37° |
| 2026-05-01 13:53 | 48.30494 | 16.80083 | 12574 ft | 311 kts | 38° |
| 2026-05-01 13:54 | 48.32215 | 16.82102 | 13467 ft | 314 kts | 39° |
| 2026-05-01 13:54 | 48.33910 | 16.84210 | 14285 ft | 318 kts | 40° |
| 2026-05-01 13:54 | 48.35595 | 16.86390 | 15005 ft | 322 kts | 41° |
| 2026-05-01 13:54 | 48.37286 | 16.88621 | 15756 ft | 325 kts | 41° |
| 2026-05-01 13:55 | 48.38973 | 16.90865 | 16459 ft | 329 kts | 41° |
| 2026-05-01 13:55 | 48.40695 | 16.93161 | 17170 ft | 332 kts | 41° |
| 2026-05-01 13:55 | 48.42438 | 16.95486 | 17889 ft | 336 kts | 41° |
| 2026-05-01 13:55 | 48.44200 | 16.97837 | 18585 ft | 340 kts | 41° |
| 2026-05-01 13:56 | 48.45977 | 17.00208 | 19229 ft | 342 kts | 41° |
| 2026-05-01 13:56 | 48.47769 | 17.02601 | 19897 ft | 344 kts | 41° |
| 2026-05-01 13:56 | 48.49571 | 17.05010 | 20536 ft | 346 kts | 41° |
| 2026-05-01 13:56 | 48.51361 | 17.07404 | 21152 ft | 349 kts | 41° |
| 2026-05-01 13:57 | 48.53179 | 17.09839 | 21779 ft | 351 kts | 42° |
| 2026-05-01 13:57 | 48.54417 | 17.11498 | 22202 ft | 353 kts | 42° |
| 2026-05-01 13:57 | 48.56870 | 17.14788 | 23004 ft | 357 kts | 42° |
| 2026-05-01 13:57 | 48.58732 | 17.17289 | 23273 ft | 359 kts | 42° |
| 2026-05-01 13:58 | 48.60599 | 17.19800 | 23331 ft | 359 kts | 42° |
| 2026-05-01 13:58 | 48.62467 | 17.22315 | 23329 ft | 359 kts | 42° |
| 2026-05-01 13:58 | 48.64331 | 17.24827 | 23329 ft | 359 kts | 42° |
| 2026-05-01 13:58 | 48.66198 | 17.27345 | 23331 ft | 359 kts | 42° |
| 2026-05-01 13:59 | 48.68037 | 17.29828 | 23327 ft | 359 kts | 42° |
| 2026-05-01 13:59 | 48.69903 | 17.32352 | 23327 ft | 358 kts | 42° |
| 2026-05-01 13:59 | 48.71766 | 17.34873 | 23328 ft | 359 kts | 42° |
| 2026-05-01 13:59 | 48.73627 | 17.37394 | 23326 ft | 359 kts | 42° |
| 2026-05-01 14:00 | 48.75465 | 17.39886 | 23326 ft | 358 kts | 42° |
| 2026-05-01 14:00 | 48.77321 | 17.42406 | 23325 ft | 358 kts | 42° |
| 2026-05-01 14:00 | 48.79183 | 17.44936 | 23324 ft | 358 kts | 42° |
| 2026-05-01 14:00 | 48.81042 | 17.47466 | 23324 ft | 358 kts | 42° |
| 2026-05-01 14:01 | 48.82897 | 17.49991 | 23323 ft | 358 kts | 42° |
| 2026-05-01 14:01 | 48.84748 | 17.52514 | 23320 ft | 358 kts | 42° |
| 2026-05-01 14:01 | 48.86606 | 17.55049 | 23322 ft | 358 kts | 42° |
| 2026-05-01 14:01 | 48.88431 | 17.57542 | 23322 ft | 358 kts | 42° |
| 2026-05-01 14:02 | 48.90076 | 17.59792 | 23322 ft | 358 kts | 42° |
| 2026-05-01 14:02 | 48.91928 | 17.62326 | 23322 ft | 358 kts | 42° |
| 2026-05-01 14:02 | 48.93780 | 17.64863 | 23324 ft | 357 kts | 42° |
| 2026-05-01 14:02 | 48.95634 | 17.67405 | 23323 ft | 358 kts | 42° |
| 2026-05-01 14:03 | 48.97487 | 17.69949 | 23320 ft | 357 kts | 42° |
| 2026-05-01 14:03 | 48.99312 | 17.72458 | 23323 ft | 358 kts | 42° |
| 2026-05-01 14:03 | 49.01151 | 17.74988 | 23326 ft | 356 kts | 43° |
| 2026-05-01 14:03 | 49.02997 | 17.77530 | 23329 ft | 357 kts | 43° |
| 2026-05-01 14:04 | 49.04221 | 17.79218 | 23326 ft | 357 kts | 43° |
| 2026-05-01 14:04 | 49.06063 | 17.81759 | 23326 ft | 356 kts | 43° |
| 2026-05-01 14:04 | 49.07908 | 17.84306 | 23328 ft | 357 kts | 43° |
| 2026-05-01 14:04 | 49.09751 | 17.86854 | 23327 ft | 357 kts | 43° |
| 2026-05-01 14:05 | 49.11592 | 17.89403 | 23326 ft | 357 kts | 43° |
| 2026-05-01 14:05 | 49.13424 | 17.91940 | 23332 ft | 355 kts | 43° |
| 2026-05-01 14:05 | 49.15257 | 17.94482 | 23331 ft | 356 kts | 43° |
| 2026-05-01 14:05 | 49.17093 | 17.97032 | 23327 ft | 356 kts | 43° |
| 2026-05-01 14:06 | 49.18902 | 17.99545 | 23333 ft | 357 kts | 43° |
| 2026-05-01 14:06 | 49.20735 | 18.02095 | 23327 ft | 355 kts | 43° |
| 2026-05-01 14:06 | 49.22571 | 18.04651 | 23332 ft | 356 kts | 43° |
| 2026-05-01 14:06 | 49.24397 | 18.07195 | 23331 ft | 355 kts | 43° |
| 2026-05-01 14:07 | 49.26233 | 18.09757 | 23328 ft | 356 kts | 43° |
| 2026-05-01 14:07 | 49.28060 | 18.12311 | 23325 ft | 355 kts | 43° |
| 2026-05-01 14:07 | 49.29883 | 18.14861 | 23329 ft | 355 kts | 43° |
| 2026-05-01 14:08 | 49.33534 | 18.19975 | 23330 ft | 356 kts | 43° |
| 2026-05-01 14:08 | 49.35363 | 18.22542 | 23323 ft | 355 kts | 43° |
| 2026-05-01 14:08 | 49.37177 | 18.25090 | 23324 ft | 354 kts | 43° |
| 2026-05-01 14:08 | 49.38980 | 18.27624 | 23324 ft | 355 kts | 43° |
| 2026-05-01 14:09 | 49.40796 | 18.30179 | 23331 ft | 355 kts | 43° |
| 2026-05-01 14:09 | 49.42623 | 18.32753 | 23318 ft | 355 kts | 43° |
| 2026-05-01 14:09 | 49.44436 | 18.35311 | 23327 ft | 354 kts | 43° |
| 2026-05-01 14:09 | 49.46255 | 18.37879 | 23323 ft | 355 kts | 43° |
| 2026-05-01 14:10 | 49.48075 | 18.40451 | 23322 ft | 354 kts | 43° |
| 2026-05-01 14:10 | 49.49874 | 18.42996 | 23311 ft | 354 kts | 43° |
| 2026-05-01 14:10 | 49.51689 | 18.45565 | 23317 ft | 355 kts | 43° |
| 2026-05-01 14:10 | 49.53497 | 18.48127 | 23209 ft | 351 kts | 43° |
| 2026-05-01 14:11 | 49.55293 | 18.50678 | 22737 ft | 350 kts | 43° |
| 2026-05-01 14:11 | 49.58849 | 18.55732 | 21610 ft | 345 kts | 43° |
| 2026-05-01 14:11 | 49.60604 | 18.58231 | 20993 ft | 343 kts | 43° |
| 2026-05-01 14:12 | 49.62350 | 18.60719 | 20387 ft | 340 kts | 43° |
| 2026-05-01 14:12 | 49.64069 | 18.63174 | 19559 ft | 345 kts | 43° |
| 2026-05-01 14:12 | 49.65866 | 18.65739 | 18405 ft | 358 kts | 43° |
| 2026-05-01 14:12 | 49.67776 | 18.68318 | 17001 ft | 372 kts | 37° |
| 2026-05-01 14:13 | 49.70017 | 18.70462 | 15731 ft | 383 kts | 27° |
| 2026-05-01 14:13 | 49.72394 | 18.72273 | 14960 ft | 379 kts | 32° |
| 2026-05-01 14:13 | 49.74442 | 18.74781 | 14225 ft | 374 kts | 46° |
| 2026-05-01 14:13 | 49.75947 | 18.78045 | 13375 ft | 374 kts | 61° |
| 2026-05-01 14:14 | 49.76765 | 18.81868 | 12525 ft | 375 kts | 75° |
| 2026-05-01 14:14 | 49.77258 | 18.85823 | 11699 ft | 374 kts | 76° |
| 2026-05-01 14:14 | 49.77745 | 18.89752 | 10929 ft | 371 kts | 76° |
| 2026-05-01 14:14 | 49.78226 | 18.93632 | 10509 ft | 360 kts | 76° |
| 2026-05-01 14:15 | 49.78674 | 18.97303 | 10361 ft | 343 kts | 76° |
| 2026-05-01 14:15 | 49.79097 | 19.00835 | 10316 ft | 324 kts | 76° |
| 2026-05-01 14:15 | 49.79492 | 19.04186 | 10313 ft | 310 kts | 76° |
| 2026-05-01 14:15 | 49.79879 | 19.07518 | 10316 ft | 316 kts | 76° |
| 2026-05-01 14:16 | 49.80258 | 19.10841 | 10301 ft | 305 kts | 76° |
| 2026-05-01 14:16 | 49.80607 | 19.13937 | 10311 ft | 278 kts | 76° |
| 2026-05-01 14:16 | 49.80963 | 19.16769 | 10308 ft | 261 kts | 72° |
| 2026-05-01 14:16 | 49.81419 | 19.19527 | 10314 ft | 266 kts | 71° |
| 2026-05-01 14:17 | 49.81881 | 19.22249 | 10313 ft | 266 kts | 71° |
| 2026-05-01 14:17 | 49.82357 | 19.25036 | 10312 ft | 268 kts | 71° |
| 2026-05-01 14:17 | 49.82835 | 19.27815 | 10311 ft | 266 kts | 71° |
| 2026-05-01 14:17 | 49.83306 | 19.30583 | 10309 ft | 265 kts | 71° |
| 2026-05-01 14:18 | 49.83779 | 19.33356 | 10315 ft | 266 kts | 71° |
| 2026-05-01 14:18 | 49.84251 | 19.36127 | 10311 ft | 266 kts | 71° |
| 2026-05-01 14:18 | 49.84720 | 19.38889 | 10307 ft | 265 kts | 71° |
| 2026-05-01 14:18 | 49.85030 | 19.40716 | 10303 ft | 266 kts | 71° |
| 2026-05-01 14:19 | 49.85664 | 19.44438 | 10300 ft | 266 kts | 71° |
| 2026-05-01 14:19 | 49.86132 | 19.47202 | 10157 ft | 264 kts | 71° |
| 2026-05-01 14:19 | 49.86599 | 19.49964 | 9790 ft | 264 kts | 71° |
| 2026-05-01 14:19 | 49.87063 | 19.52684 | 9367 ft | 265 kts | 71° |
| 2026-05-01 14:20 | 49.87563 | 19.55442 | 8904 ft | 266 kts | 69° |
| 2026-05-01 14:20 | 49.88841 | 19.60796 | 8103 ft | 264 kts | 66° |
| 2026-05-01 14:20 | 49.89499 | 19.63472 | 7609 ft | 267 kts | 66° |
| 2026-05-01 14:21 | 49.90169 | 19.66169 | 7237 ft | 266 kts | 66° |
| 2026-05-01 14:21 | 49.90836 | 19.68818 | 6827 ft | 267 kts | 66° |
| 2026-05-01 14:21 | 49.91510 | 19.71504 | 6446 ft | 267 kts | 66° |
| 2026-05-01 14:22 | 49.92846 | 19.76818 | 6013 ft | 262 kts | 66° |
| 2026-05-01 14:22 | 49.93514 | 19.79487 | 5999 ft | 265 kts | 66° |
| 2026-05-01 14:22 | 49.94179 | 19.82147 | 6000 ft | 264 kts | 66° |
| 2026-05-01 14:22 | 49.94845 | 19.84816 | 5998 ft | 265 kts | 66° |
| 2026-05-01 14:23 | 49.95503 | 19.87451 | 6001 ft | 265 kts | 66° |
| 2026-05-01 14:23 | 49.96169 | 19.90129 | 6003 ft | 264 kts | 66° |
| 2026-05-01 14:23 | 49.96830 | 19.92787 | 6000 ft | 264 kts | 66° |
| 2026-05-01 14:23 | 49.97492 | 19.95450 | 5919 ft | 262 kts | 66° |
| 2026-05-01 14:24 | 49.98146 | 19.98073 | 5473 ft | 268 kts | 66° |
| 2026-05-01 14:24 | 49.98835 | 20.00821 | 5114 ft | 278 kts | 66° |
| 2026-05-01 14:24 | 49.99589 | 20.03794 | 5022 ft | 305 kts | 66° |
| 2026-05-01 14:24 | 50.00374 | 20.06871 | 5002 ft | 305 kts | 66° |
| 2026-05-01 14:25 | 50.01153 | 20.09930 | 4985 ft | 300 kts | 66° |
| 2026-05-01 14:25 | 50.01886 | 20.12839 | 5003 ft | 276 kts | 66° |
| 2026-05-01 14:25 | 50.02551 | 20.15511 | 4999 ft | 254 kts | 66° |
| 2026-05-01 14:25 | 50.03185 | 20.18063 | 4651 ft | 252 kts | 63° |
| 2026-05-01 14:26 | 50.04211 | 20.20198 | 4204 ft | 246 kts | 34° |
| 2026-05-01 14:26 | 50.07453 | 20.20883 | 4008 ft | 244 kts | 345° |
| 2026-05-01 14:26 | 50.08946 | 20.19648 | 4003 ft | 248 kts | 318° |
| 2026-05-01 14:27 | 50.09870 | 20.17360 | 3994 ft | 255 kts | 289° |
| 2026-05-01 14:27 | 50.10310 | 20.14683 | 3998 ft | 255 kts | 286° |
| 2026-05-01 14:27 | 50.10725 | 20.11998 | 3999 ft | 254 kts | 287° |
| 2026-05-01 14:28 | 50.10872 | 20.06462 | 3963 ft | 258 kts | 267° |
| 2026-05-01 14:28 | 50.10690 | 20.03678 | 3629 ft | 261 kts | 266° |
| 2026-05-01 14:28 | 50.10525 | 20.00839 | 3204 ft | 265 kts | 268° |
| 2026-05-01 14:28 | 50.10372 | 19.98011 | 3026 ft | 257 kts | 265° |
| 2026-05-01 14:29 | 50.10104 | 19.95323 | 2806 ft | 252 kts | 261° |
| 2026-05-01 14:29 | 50.09753 | 19.92762 | 2592 ft | 221 kts | 258° |
| 2026-05-01 14:30 | 50.08959 | 19.87033 | 1645 ft | 151 kts | 260° |
| 2026-05-01 14:30 | 50.08721 | 19.85498 | 1449 ft | 142 kts | 258° |
| 2026-05-01 14:30 | 50.08504 | 19.84084 | 1319 ft | 126 kts | 263° |
| 2026-05-01 14:31 | 50.08181 | 19.81488 | 1010 ft | 119 kts | 261° |
| 2026-05-01 14:31 | 50.08006 | 19.80245 | 821 ft | 113 kts | 263° |
| 2026-05-01 14:31 | 50.07877 | 19.79122 | 792 ft | 95 kts | 258° |
| 2026-05-01 14:31 | 50.07747 | 19.78250 | 794 ft | 62 kts | 253° |
| 2026-05-01 14:32 | 50.07628 | 19.78106 | 794 ft | 16 kts | 183° |
| 2026-05-01 14:32 | 50.07571 | 19.78106 | 795 ft | 0 kts | 179° |
| 2026-05-01 14:33 | 50.07555 | 19.78105 | 795 ft | 10 kts | 184° |
| 2026-05-01 14:33 | 50.07474 | 19.78138 | 795 ft | 13 kts | 120° |
| 2026-05-01 14:33 | 50.07486 | 19.78267 | 794 ft | 18 kts | 78° |
| 2026-05-01 14:33 | 50.07525 | 19.78543 | 793 ft | 31 kts | 77° |
| 2026-05-01 14:34 | 50.07571 | 19.78881 | 792 ft | 32 kts | 77° |
| 2026-05-01 14:34 | 50.07625 | 19.79217 | 791 ft | 32 kts | 76° |
| 2026-05-01 14:34 | 50.07661 | 19.79543 | 789 ft | 23 kts | 82° |
| 2026-05-01 14:34 | 50.07639 | 19.79719 | 789 ft | 0 kts | 124° |
| 2026-05-01 14:35 | 50.07600 | 19.79810 | 789 ft | 24 kts | 124° |
| 2026-05-01 14:35 | 50.07463 | 19.80014 | 788 ft | 29 kts | 119° |
| 2026-05-01 14:35 | 50.07466 | 19.80261 | 787 ft | 13 kts | 69° |
| 2026-05-01 14:36 | 50.07503 | 19.80399 | 787 ft | 15 kts | 86° |
| 2026-05-01 14:36 | 50.07492 | 19.80497 | 787 ft | 0 kts | 107° |